sensor_id;sensor_type;location;lat;lon;timestamp;P1;durP1;ratioP1;P2;durP2;ratioP2
2011;SDS011;1009;51.436;6.972;2022-10-31T00:02:17;14.43;;;7.30;;
2011;SDS011;1009;51.436;6.972;2022-10-31T00:04:43;12.73;;;7.53;;
2011;SDS011;1009;51.436;6.972;2022-10-31T00:07:11;18.40;;;7.50;;
2011;SDS011;1009;51.436;6.972;2022-10-31T00:09:38;15.87;;;8.23;;
2011;SDS011;1009;51.436;6.972;2022-10-31T00:12:05;18.20;;;7.83;;
2011;SDS011;1009;51.436;6.972;2022-10-31T00:14:32;16.47;;;8.20;;
2011;SDS011;1009;51.436;6.972;2022-10-31T00:16:58;10.83;;;8.20;;
2011;SDS011;1009;51.436;6.972;2022-10-31T00:19:25;20.70;;;9.63;;
2011;SDS011;1009;51.436;6.972;2022-10-31T00:21:52;17.30;;;8.97;;
2011;SDS011;1009;51.436;6.972;2022-10-31T00:24:20;15.80;;;8.43;;
2011;SDS011;1009;51.436;6.972;2022-10-31T00:26:46;17.80;;;9.57;;
2011;SDS011;1009;51.436;6.972;2022-10-31T00:29:13;12.90;;;8.70;;
2011;SDS011;1009;51.436;6.972;2022-10-31T00:31:40;15.03;;;8.03;;
2011;SDS011;1009;51.436;6.972;2022-10-31T00:34:06;19.83;;;10.07;;
2011;SDS011;1009;51.436;6.972;2022-10-31T00:36:33;15.77;;;9.00;;
2011;SDS011;1009;51.436;6.972;2022-10-31T00:39:00;16.30;;;9.07;;
2011;SDS011;1009;51.436;6.972;2022-10-31T00:41:28;15.10;;;8.90;;
2011;SDS011;1009;51.436;6.972;2022-10-31T00:43:55;13.20;;;8.33;;
2011;SDS011;1009;51.436;6.972;2022-10-31T00:46:22;17.43;;;8.93;;
2011;SDS011;1009;51.436;6.972;2022-10-31T00:48:48;15.40;;;8.53;;
2011;SDS011;1009;51.436;6.972;2022-10-31T00:51:15;21.00;;;9.50;;
2011;SDS011;1009;51.436;6.972;2022-10-31T00:53:43;16.77;;;9.70;;
2011;SDS011;1009;51.436;6.972;2022-10-31T00:56:09;13.23;;;9.50;;
2011;SDS011;1009;51.436;6.972;2022-10-31T00:58:37;15.20;;;9.10;;
2011;SDS011;1009;51.436;6.972;2022-10-31T01:01:04;12.57;;;8.73;;
2011;SDS011;1009;51.436;6.972;2022-10-31T01:03:32;15.03;;;8.60;;
2011;SDS011;1009;51.436;6.972;2022-10-31T01:06:00;17.60;;;9.17;;
2011;SDS011;1009;51.436;6.972;2022-10-31T01:08:28;15.37;;;8.93;;
2011;SDS011;1009;51.436;6.972;2022-10-31T01:10:59;18.37;;;9.97;;
2011;SDS011;1009;51.436;6.972;2022-10-31T01:13:27;12.90;;;8.37;;
2011;SDS011;1009;51.436;6.972;2022-10-31T01:15:55;15.27;;;8.63;;
2011;SDS011;1009;51.436;6.972;2022-10-31T01:18:23;13.40;;;8.20;;
2011;SDS011;1009;51.436;6.972;2022-10-31T01:21:00;16.73;;;9.90;;
2011;SDS011;1009;51.436;6.972;2022-10-31T01:23:28;17.07;;;11.10;;
2011;SDS011;1009;51.436;6.972;2022-10-31T01:25:59;16.13;;;10.10;;
2011;SDS011;1009;51.436;6.972;2022-10-31T01:28:30;12.70;;;8.90;;
2011;SDS011;1009;51.436;6.972;2022-10-31T01:31:01;16.67;;;8.37;;
2011;SDS011;1009;51.436;6.972;2022-10-31T01:33:28;19.20;;;7.90;;
2011;SDS011;1009;51.436;6.972;2022-10-31T01:35:55;16.30;;;8.40;;
2011;SDS011;1009;51.436;6.972;2022-10-31T01:38:22;14.63;;;7.83;;
2011;SDS011;1009;51.436;6.972;2022-10-31T01:40:49;18.43;;;9.37;;
2011;SDS011;1009;51.436;6.972;2022-10-31T01:43:17;19.73;;;10.13;;
2011;SDS011;1009;51.436;6.972;2022-10-31T01:45:46;13.73;;;9.90;;
2011;SDS011;1009;51.436;6.972;2022-10-31T01:48:19;19.50;;;10.50;;
2011;SDS011;1009;51.436;6.972;2022-10-31T01:50:49;16.23;;;10.03;;
2011;SDS011;1009;51.436;6.972;2022-10-31T01:53:19;16.00;;;10.27;;
2011;SDS011;1009;51.436;6.972;2022-10-31T01:55:47;22.70;;;10.10;;
2011;SDS011;1009;51.436;6.972;2022-10-31T01:58:15;17.80;;;10.00;;
2011;SDS011;1009;51.436;6.972;2022-10-31T02:00:46;14.43;;;9.67;;
2011;SDS011;1009;51.436;6.972;2022-10-31T02:03:16;18.83;;;9.77;;
2011;SDS011;1009;51.436;6.972;2022-10-31T02:05:46;15.43;;;8.90;;
2011;SDS011;1009;51.436;6.972;2022-10-31T02:08:15;13.80;;;9.53;;
2011;SDS011;1009;51.436;6.972;2022-10-31T02:10:46;22.37;;;9.90;;
2011;SDS011;1009;51.436;6.972;2022-10-31T02:13:12;16.30;;;9.73;;
2011;SDS011;1009;51.436;6.972;2022-10-31T02:15:40;19.77;;;10.70;;
2011;SDS011;1009;51.436;6.972;2022-10-31T02:18:09;19.83;;;12.57;;
2011;SDS011;1009;51.436;6.972;2022-10-31T02:20:39;20.13;;;12.30;;
2011;SDS011;1009;51.436;6.972;2022-10-31T02:23:23;19.20;;;11.60;;
2011;SDS011;1009;51.436;6.972;2022-10-31T02:26:12;13.03;;;7.60;;
2011;SDS011;1009;51.436;6.972;2022-10-31T02:32:13;17.37;;;9.73;;
2011;SDS011;1009;51.436;6.972;2022-10-31T02:34:48;18.53;;;9.43;;
2011;SDS011;1009;51.436;6.972;2022-10-31T02:37:24;14.97;;;9.23;;
2011;SDS011;1009;51.436;6.972;2022-10-31T02:39:56;14.97;;;9.13;;
2011;SDS011;1009;51.436;6.972;2022-10-31T02:42:32;16.73;;;9.60;;
2011;SDS011;1009;51.436;6.972;2022-10-31T02:45:05;17.10;;;8.87;;
2011;SDS011;1009;51.436;6.972;2022-10-31T02:47:38;15.00;;;9.03;;
2011;SDS011;1009;51.436;6.972;2022-10-31T02:50:08;18.30;;;8.80;;
2011;SDS011;1009;51.436;6.972;2022-10-31T02:52:38;13.60;;;8.23;;
2011;SDS011;1009;51.436;6.972;2022-10-31T02:55:11;12.67;;;7.80;;
2011;SDS011;1009;51.436;6.972;2022-10-31T02:58:00;12.93;;;9.20;;
2011;SDS011;1009;51.436;6.972;2022-10-31T03:00:29;22.87;;;9.53;;
2011;SDS011;1009;51.436;6.972;2022-10-31T03:03:04;17.93;;;9.70;;
2011;SDS011;1009;51.436;6.972;2022-10-31T03:05:45;15.10;;;9.50;;
2011;SDS011;1009;51.436;6.972;2022-10-31T03:08:21;18.37;;;11.00;;
2011;SDS011;1009;51.436;6.972;2022-10-31T03:10:52;19.77;;;10.57;;
2011;SDS011;1009;51.436;6.972;2022-10-31T03:13:24;17.30;;;10.67;;
2011;SDS011;1009;51.436;6.972;2022-10-31T03:16:03;16.27;;;10.87;;
2011;SDS011;1009;51.436;6.972;2022-10-31T03:18:36;22.43;;;10.43;;
2011;SDS011;1009;51.436;6.972;2022-10-31T03:21:06;23.10;;;10.93;;
2011;SDS011;1009;51.436;6.972;2022-10-31T03:23:37;17.40;;;11.13;;
2011;SDS011;1009;51.436;6.972;2022-10-31T03:26:06;20.70;;;11.63;;
2011;SDS011;1009;51.436;6.972;2022-10-31T03:28:37;16.10;;;10.90;;
2011;SDS011;1009;51.436;6.972;2022-10-31T03:31:09;16.90;;;11.70;;
2011;SDS011;1009;51.436;6.972;2022-10-31T03:33:39;22.10;;;15.00;;
2011;SDS011;1009;51.436;6.972;2022-10-31T03:36:08;22.80;;;15.00;;
2011;SDS011;1009;51.436;6.972;2022-10-31T03:38:37;24.83;;;15.27;;
2011;SDS011;1009;51.436;6.972;2022-10-31T03:41:07;22.90;;;14.43;;
2011;SDS011;1009;51.436;6.972;2022-10-31T03:43:40;29.07;;;16.67;;
2011;SDS011;1009;51.436;6.972;2022-10-31T03:46:21;27.27;;;17.00;;
2011;SDS011;1009;51.436;6.972;2022-10-31T03:48:50;21.23;;;8.70;;
2011;SDS011;1009;51.436;6.972;2022-10-31T03:51:19;15.20;;;8.70;;
2011;SDS011;1009;51.436;6.972;2022-10-31T03:53:52;24.70;;;15.67;;
2011;SDS011;1009;51.436;6.972;2022-10-31T03:56:25;29.37;;;17.20;;
2011;SDS011;1009;51.436;6.972;2022-10-31T03:59:00;33.40;;;17.67;;
2011;SDS011;1009;51.436;6.972;2022-10-31T04:01:30;18.50;;;11.43;;
2011;SDS011;1009;51.436;6.972;2022-10-31T04:04:02;18.00;;;11.90;;
2011;SDS011;1009;51.436;6.972;2022-10-31T04:06:30;24.00;;;12.53;;
2011;SDS011;1009;51.436;6.972;2022-10-31T04:09:00;16.80;;;10.60;;
2011;SDS011;1009;51.436;6.972;2022-10-31T04:11:31;15.63;;;9.40;;
2011;SDS011;1009;51.436;6.972;2022-10-31T04:14:01;17.90;;;10.20;;
2011;SDS011;1009;51.436;6.972;2022-10-31T04:16:29;18.83;;;9.67;;
2011;SDS011;1009;51.436;6.972;2022-10-31T04:18:56;22.33;;;10.50;;
2011;SDS011;1009;51.436;6.972;2022-10-31T04:21:28;14.57;;;9.83;;
2011;SDS011;1009;51.436;6.972;2022-10-31T04:23:55;17.07;;;9.37;;
2011;SDS011;1009;51.436;6.972;2022-10-31T04:26:22;16.10;;;10.00;;
2011;SDS011;1009;51.436;6.972;2022-10-31T04:28:49;20.80;;;11.17;;
2011;SDS011;1009;51.436;6.972;2022-10-31T04:31:16;20.27;;;13.20;;
2011;SDS011;1009;51.436;6.972;2022-10-31T04:33:42;29.57;;;15.10;;
2011;SDS011;1009;51.436;6.972;2022-10-31T04:36:09;23.57;;;15.10;;
2011;SDS011;1009;51.436;6.972;2022-10-31T04:38:37;23.40;;;15.13;;
2011;SDS011;1009;51.436;6.972;2022-10-31T04:41:04;19.97;;;13.47;;
2011;SDS011;1009;51.436;6.972;2022-10-31T04:43:30;20.30;;;13.87;;
2011;SDS011;1009;51.436;6.972;2022-10-31T04:45:57;26.40;;;13.67;;
2011;SDS011;1009;51.436;6.972;2022-10-31T04:48:24;19.90;;;13.97;;
2011;SDS011;1009;51.436;6.972;2022-10-31T04:50:51;18.13;;;12.53;;
2011;SDS011;1009;51.436;6.972;2022-10-31T04:53:17;25.23;;;14.37;;
2011;SDS011;1009;51.436;6.972;2022-10-31T04:55:45;21.43;;;14.17;;
2011;SDS011;1009;51.436;6.972;2022-10-31T04:58:12;21.40;;;13.20;;
2011;SDS011;1009;51.436;6.972;2022-10-31T05:00:39;23.60;;;12.33;;
2011;SDS011;1009;51.436;6.972;2022-10-31T05:03:05;23.70;;;12.90;;
2011;SDS011;1009;51.436;6.972;2022-10-31T05:05:32;19.77;;;13.20;;
2011;SDS011;1009;51.436;6.972;2022-10-31T05:07:59;21.90;;;13.00;;
2011;SDS011;1009;51.436;6.972;2022-10-31T05:10:26;24.70;;;12.00;;
2011;SDS011;1009;51.436;6.972;2022-10-31T05:12:56;16.07;;;10.90;;
2011;SDS011;1009;51.436;6.972;2022-10-31T05:15:25;17.67;;;11.40;;
2011;SDS011;1009;51.436;6.972;2022-10-31T05:17:53;16.20;;;11.60;;
2011;SDS011;1009;51.436;6.972;2022-10-31T05:20:20;18.60;;;12.10;;
2011;SDS011;1009;51.436;6.972;2022-10-31T05:22:49;17.37;;;11.40;;
2011;SDS011;1009;51.436;6.972;2022-10-31T05:25:17;18.07;;;12.03;;
2011;SDS011;1009;51.436;6.972;2022-10-31T05:27:46;20.43;;;10.03;;
2011;SDS011;1009;51.436;6.972;2022-10-31T05:30:16;18.33;;;10.03;;
2011;SDS011;1009;51.436;6.972;2022-10-31T05:32:45;15.73;;;11.57;;
2011;SDS011;1009;51.436;6.972;2022-10-31T05:35:14;22.63;;;12.87;;
2011;SDS011;1009;51.436;6.972;2022-10-31T05:37:42;19.23;;;12.17;;
2011;SDS011;1009;51.436;6.972;2022-10-31T05:40:11;23.50;;;12.93;;
2011;SDS011;1009;51.436;6.972;2022-10-31T05:42:39;23.37;;;13.00;;
2011;SDS011;1009;51.436;6.972;2022-10-31T05:45:07;19.00;;;11.90;;
2011;SDS011;1009;51.436;6.972;2022-10-31T05:47:36;20.40;;;11.83;;
2011;SDS011;1009;51.436;6.972;2022-10-31T05:50:03;22.00;;;12.30;;
2011;SDS011;1009;51.436;6.972;2022-10-31T05:52:31;20.80;;;11.67;;
2011;SDS011;1009;51.436;6.972;2022-10-31T05:54:58;18.80;;;10.00;;
2011;SDS011;1009;51.436;6.972;2022-10-31T05:57:24;11.50;;;8.50;;
2011;SDS011;1009;51.436;6.972;2022-10-31T05:59:51;15.57;;;9.40;;
2011;SDS011;1009;51.436;6.972;2022-10-31T06:02:18;16.00;;;9.30;;
2011;SDS011;1009;51.436;6.972;2022-10-31T06:04:46;23.37;;;11.40;;
2011;SDS011;1009;51.436;6.972;2022-10-31T06:07:13;27.77;;;11.93;;
2011;SDS011;1009;51.436;6.972;2022-10-31T06:09:39;25.37;;;12.07;;
2011;SDS011;1009;51.436;6.972;2022-10-31T06:12:06;16.40;;;11.40;;
2011;SDS011;1009;51.436;6.972;2022-10-31T06:14:33;22.00;;;12.90;;
2011;SDS011;1009;51.436;6.972;2022-10-31T06:16:59;21.40;;;12.57;;
2011;SDS011;1009;51.436;6.972;2022-10-31T06:19:26;19.67;;;12.53;;
2011;SDS011;1009;51.436;6.972;2022-10-31T06:21:54;25.40;;;12.70;;
2011;SDS011;1009;51.436;6.972;2022-10-31T06:24:21;20.23;;;11.23;;
2011;SDS011;1009;51.436;6.972;2022-10-31T06:26:48;21.17;;;12.20;;
2011;SDS011;1009;51.436;6.972;2022-10-31T06:29:14;21.83;;;12.90;;
2011;SDS011;1009;51.436;6.972;2022-10-31T06:31:41;23.53;;;12.73;;
2011;SDS011;1009;51.436;6.972;2022-10-31T06:34:08;19.03;;;10.60;;
2011;SDS011;1009;51.436;6.972;2022-10-31T06:36:34;28.23;;;12.43;;
2011;SDS011;1009;51.436;6.972;2022-10-31T06:39:03;20.77;;;11.70;;
2011;SDS011;1009;51.436;6.972;2022-10-31T06:41:29;21.17;;;12.30;;
2011;SDS011;1009;51.436;6.972;2022-10-31T06:43:56;20.30;;;12.10;;
2011;SDS011;1009;51.436;6.972;2022-10-31T06:46:23;20.50;;;10.50;;
2011;SDS011;1009;51.436;6.972;2022-10-31T06:48:50;15.97;;;9.07;;
2011;SDS011;1009;51.436;6.972;2022-10-31T06:51:18;20.50;;;12.20;;
2011;SDS011;1009;51.436;6.972;2022-10-31T06:53:44;22.80;;;11.67;;
2011;SDS011;1009;51.436;6.972;2022-10-31T06:56:12;19.03;;;12.60;;
2011;SDS011;1009;51.436;6.972;2022-10-31T06:58:39;25.33;;;12.60;;
2011;SDS011;1009;51.436;6.972;2022-10-31T07:01:06;20.80;;;9.77;;
2011;SDS011;1009;51.436;6.972;2022-10-31T07:03:33;17.13;;;9.40;;
2011;SDS011;1009;51.436;6.972;2022-10-31T07:05:59;18.67;;;10.07;;
2011;SDS011;1009;51.436;6.972;2022-10-31T07:08:26;18.70;;;11.80;;
2011;SDS011;1009;51.436;6.972;2022-10-31T07:10:53;22.60;;;13.10;;
2011;SDS011;1009;51.436;6.972;2022-10-31T07:13:22;25.27;;;14.10;;
2011;SDS011;1009;51.436;6.972;2022-10-31T07:15:50;23.50;;;14.67;;
2011;SDS011;1009;51.436;6.972;2022-10-31T07:18:18;15.20;;;8.90;;
2011;SDS011;1009;51.436;6.972;2022-10-31T07:20:45;14.17;;;9.97;;
2011;SDS011;1009;51.436;6.972;2022-10-31T07:23:12;13.73;;;10.53;;
2011;SDS011;1009;51.436;6.972;2022-10-31T07:25:39;22.30;;;10.13;;
2011;SDS011;1009;51.436;6.972;2022-10-31T07:28:06;15.83;;;10.10;;
2011;SDS011;1009;51.436;6.972;2022-10-31T07:30:35;16.23;;;11.27;;
2011;SDS011;1009;51.436;6.972;2022-10-31T07:33:02;15.10;;;10.10;;
2011;SDS011;1009;51.436;6.972;2022-10-31T07:35:29;15.03;;;10.40;;
2011;SDS011;1009;51.436;6.972;2022-10-31T07:41:19;15.90;;;9.60;;
2011;SDS011;1009;51.436;6.972;2022-10-31T07:43:46;19.23;;;10.40;;
2011;SDS011;1009;51.436;6.972;2022-10-31T07:46:14;23.53;;;11.00;;
2011;SDS011;1009;51.436;6.972;2022-10-31T07:48:41;17.10;;;11.20;;
2011;SDS011;1009;51.436;6.972;2022-10-31T07:51:08;18.13;;;10.80;;
2011;SDS011;1009;51.436;6.972;2022-10-31T07:53:35;16.80;;;10.57;;
2011;SDS011;1009;51.436;6.972;2022-10-31T07:56:01;18.53;;;10.90;;
2011;SDS011;1009;51.436;6.972;2022-10-31T07:58:28;21.47;;;12.77;;
2011;SDS011;1009;51.436;6.972;2022-10-31T08:00:57;16.50;;;10.23;;
2011;SDS011;1009;51.436;6.972;2022-10-31T08:03:25;21.90;;;12.07;;
2011;SDS011;1009;51.436;6.972;2022-10-31T08:05:51;19.40;;;13.47;;
2011;SDS011;1009;51.436;6.972;2022-10-31T08:08:18;18.63;;;12.07;;
2011;SDS011;1009;51.436;6.972;2022-10-31T08:10:45;19.37;;;11.30;;
2011;SDS011;1009;51.436;6.972;2022-10-31T08:13:12;19.73;;;12.43;;
2011;SDS011;1009;51.436;6.972;2022-10-31T08:15:40;19.00;;;12.10;;
2011;SDS011;1009;51.436;6.972;2022-10-31T08:18:10;22.10;;;12.57;;
2011;SDS011;1009;51.436;6.972;2022-10-31T08:20:39;22.30;;;12.63;;
2011;SDS011;1009;51.436;6.972;2022-10-31T08:23:06;21.63;;;12.70;;
2011;SDS011;1009;51.436;6.972;2022-10-31T08:25:34;22.10;;;12.43;;
2011;SDS011;1009;51.436;6.972;2022-10-31T08:28:01;23.47;;;13.80;;
2011;SDS011;1009;51.436;6.972;2022-10-31T08:30:29;21.50;;;12.30;;
2011;SDS011;1009;51.436;6.972;2022-10-31T08:33:01;26.07;;;13.57;;
2011;SDS011;1009;51.436;6.972;2022-10-31T08:35:28;22.97;;;14.27;;
2011;SDS011;1009;51.436;6.972;2022-10-31T08:37:56;28.57;;;16.53;;
2011;SDS011;1009;51.436;6.972;2022-10-31T08:40:24;33.30;;;14.87;;
2011;SDS011;1009;51.436;6.972;2022-10-31T08:42:58;19.73;;;11.43;;
2011;SDS011;1009;51.436;6.972;2022-10-31T08:45:26;17.60;;;10.70;;
2011;SDS011;1009;51.436;6.972;2022-10-31T08:47:56;23.87;;;12.27;;
2011;SDS011;1009;51.436;6.972;2022-10-31T08:50:23;22.20;;;13.20;;
2011;SDS011;1009;51.436;6.972;2022-10-31T08:52:51;29.97;;;16.10;;
2011;SDS011;1009;51.436;6.972;2022-10-31T08:55:19;27.20;;;12.97;;
2011;SDS011;1009;51.436;6.972;2022-10-31T08:57:46;27.70;;;17.20;;
2011;SDS011;1009;51.436;6.972;2022-10-31T09:00:12;30.13;;;15.70;;
2011;SDS011;1009;51.436;6.972;2022-10-31T09:02:39;28.83;;;17.83;;
2011;SDS011;1009;51.436;6.972;2022-10-31T09:05:06;32.30;;;19.23;;
2011;SDS011;1009;51.436;6.972;2022-10-31T09:07:33;29.40;;;18.20;;
2011;SDS011;1009;51.436;6.972;2022-10-31T09:10:00;25.97;;;17.90;;
2011;SDS011;1009;51.436;6.972;2022-10-31T09:12:28;32.43;;;18.60;;
2011;SDS011;1009;51.436;6.972;2022-10-31T09:14:55;32.50;;;19.07;;
2011;SDS011;1009;51.436;6.972;2022-10-31T09:17:21;34.90;;;20.93;;
2011;SDS011;1009;51.436;6.972;2022-10-31T09:19:49;41.40;;;20.70;;
2011;SDS011;1009;51.436;6.972;2022-10-31T09:22:15;39.30;;;21.30;;
2011;SDS011;1009;51.436;6.972;2022-10-31T09:24:43;32.37;;;19.73;;
2011;SDS011;1009;51.436;6.972;2022-10-31T09:27:10;39.17;;;21.87;;
2011;SDS011;1009;51.436;6.972;2022-10-31T09:29:38;35.80;;;20.67;;
2011;SDS011;1009;51.436;6.972;2022-10-31T09:32:04;35.90;;;22.03;;
2011;SDS011;1009;51.436;6.972;2022-10-31T09:34:31;32.63;;;17.33;;
2011;SDS011;1009;51.436;6.972;2022-10-31T09:36:58;35.00;;;17.33;;
2011;SDS011;1009;51.436;6.972;2022-10-31T09:39:24;36.00;;;17.70;;
2011;SDS011;1009;51.436;6.972;2022-10-31T09:42:03;32.27;;;17.77;;
2011;SDS011;1009;51.436;6.972;2022-10-31T09:44:51;39.40;;;20.00;;
2011;SDS011;1009;51.436;6.972;2022-10-31T09:47:26;28.13;;;18.50;;
2011;SDS011;1009;51.436;6.972;2022-10-31T09:50:09;35.23;;;19.00;;
2011;SDS011;1009;51.436;6.972;2022-10-31T09:52:52;29.57;;;18.17;;
2011;SDS011;1009;51.436;6.972;2022-10-31T09:55:26;32.67;;;17.17;;
2011;SDS011;1009;51.436;6.972;2022-10-31T09:57:57;34.67;;;19.40;;
2011;SDS011;1009;51.436;6.972;2022-10-31T10:00:27;34.60;;;18.43;;
2011;SDS011;1009;51.436;6.972;2022-10-31T10:02:57;30.53;;;19.50;;
2011;SDS011;1009;51.436;6.972;2022-10-31T10:05:49;32.60;;;18.87;;
2011;SDS011;1009;51.436;6.972;2022-10-31T10:08:52;32.23;;;18.40;;
2011;SDS011;1009;51.436;6.972;2022-10-31T10:11:23;29.30;;;17.90;;
2011;SDS011;1009;51.436;6.972;2022-10-31T10:14:04;42.27;;;19.30;;
2011;SDS011;1009;51.436;6.972;2022-10-31T10:16:47;31.07;;;17.53;;
2011;SDS011;1009;51.436;6.972;2022-10-31T10:19:27;36.63;;;18.27;;
2011;SDS011;1009;51.436;6.972;2022-10-31T10:22:20;28.47;;;16.43;;
2011;SDS011;1009;51.436;6.972;2022-10-31T10:24:55;29.87;;;18.13;;
2011;SDS011;1009;51.436;6.972;2022-10-31T10:27:37;35.00;;;19.67;;
2011;SDS011;1009;51.436;6.972;2022-10-31T10:30:14;35.10;;;18.73;;
2011;SDS011;1009;51.436;6.972;2022-10-31T10:32:45;31.50;;;17.80;;
2011;SDS011;1009;51.436;6.972;2022-10-31T10:35:19;34.30;;;17.60;;
2011;SDS011;1009;51.436;6.972;2022-10-31T10:37:49;33.30;;;17.57;;
2011;SDS011;1009;51.436;6.972;2022-10-31T10:40:20;30.47;;;16.20;;
2011;SDS011;1009;51.436;6.972;2022-10-31T10:42:52;26.23;;;16.40;;
2011;SDS011;1009;51.436;6.972;2022-10-31T10:45:42;25.83;;;17.07;;
2011;SDS011;1009;51.436;6.972;2022-10-31T10:48:35;28.47;;;17.40;;
2011;SDS011;1009;51.436;6.972;2022-10-31T10:51:10;26.23;;;17.13;;
2011;SDS011;1009;51.436;6.972;2022-10-31T10:53:46;30.00;;;18.90;;
2011;SDS011;1009;51.436;6.972;2022-10-31T10:56:30;27.70;;;16.90;;
2011;SDS011;1009;51.436;6.972;2022-10-31T10:59:09;24.60;;;16.93;;
2011;SDS011;1009;51.436;6.972;2022-10-31T11:01:39;25.80;;;16.83;;
2011;SDS011;1009;51.436;6.972;2022-10-31T11:04:17;31.00;;;17.10;;
2011;SDS011;1009;51.436;6.972;2022-10-31T11:06:59;28.30;;;16.80;;
2011;SDS011;1009;51.436;6.972;2022-10-31T11:09:27;28.00;;;14.00;;
2011;SDS011;1009;51.436;6.972;2022-10-31T11:11:55;28.53;;;13.70;;
2011;SDS011;1009;51.436;6.972;2022-10-31T11:14:23;29.23;;;14.90;;
2011;SDS011;1009;51.436;6.972;2022-10-31T11:16:51;28.13;;;14.93;;
2011;SDS011;1009;51.436;6.972;2022-10-31T11:19:22;31.40;;;14.93;;
2011;SDS011;1009;51.436;6.972;2022-10-31T11:21:52;25.30;;;14.00;;
2011;SDS011;1009;51.436;6.972;2022-10-31T11:24:20;26.17;;;14.37;;
2011;SDS011;1009;51.436;6.972;2022-10-31T11:26:49;24.40;;;13.80;;
2011;SDS011;1009;51.436;6.972;2022-10-31T11:29:17;26.97;;;13.50;;
2011;SDS011;1009;51.436;6.972;2022-10-31T11:31:47;21.57;;;13.67;;
2011;SDS011;1009;51.436;6.972;2022-10-31T11:34:27;22.83;;;14.00;;
2011;SDS011;1009;51.436;6.972;2022-10-31T11:36:57;25.27;;;12.47;;
2011;SDS011;1009;51.436;6.972;2022-10-31T11:39:27;20.97;;;13.20;;
2011;SDS011;1009;51.436;6.972;2022-10-31T11:41:54;25.23;;;12.50;;
2011;SDS011;1009;51.436;6.972;2022-10-31T11:44:26;20.23;;;12.10;;
2011;SDS011;1009;51.436;6.972;2022-10-31T11:46:55;18.63;;;12.07;;
2011;SDS011;1009;51.436;6.972;2022-10-31T11:49:25;25.63;;;12.43;;
2011;SDS011;1009;51.436;6.972;2022-10-31T11:51:57;19.60;;;10.30;;
2011;SDS011;1009;51.436;6.972;2022-10-31T11:54:28;21.30;;;12.67;;
2011;SDS011;1009;51.436;6.972;2022-10-31T11:56:56;20.67;;;10.70;;
2011;SDS011;1009;51.436;6.972;2022-10-31T11:59:25;18.33;;;11.07;;
2011;SDS011;1009;51.436;6.972;2022-10-31T12:01:54;15.80;;;10.00;;
2011;SDS011;1009;51.436;6.972;2022-10-31T12:04:35;22.30;;;11.33;;
2011;SDS011;1009;51.436;6.972;2022-10-31T12:07:07;22.40;;;10.80;;
2011;SDS011;1009;51.436;6.972;2022-10-31T12:09:34;13.83;;;10.10;;
2011;SDS011;1009;51.436;6.972;2022-10-31T12:12:06;19.50;;;10.43;;
2011;SDS011;1009;51.436;6.972;2022-10-31T12:14:45;18.07;;;9.33;;
2011;SDS011;1009;51.436;6.972;2022-10-31T12:17:21;15.80;;;9.57;;
2011;SDS011;1009;51.436;6.972;2022-10-31T12:19:54;17.23;;;9.50;;
2011;SDS011;1009;51.436;6.972;2022-10-31T12:22:30;18.43;;;9.40;;
2011;SDS011;1009;51.436;6.972;2022-10-31T12:25:12;15.30;;;9.00;;
2011;SDS011;1009;51.436;6.972;2022-10-31T12:27:57;16.80;;;8.97;;
2011;SDS011;1009;51.436;6.972;2022-10-31T12:30:33;14.47;;;8.97;;
2011;SDS011;1009;51.436;6.972;2022-10-31T12:33:20;14.13;;;8.83;;
2011;SDS011;1009;51.436;6.972;2022-10-31T12:36:00;12.43;;;8.00;;
2011;SDS011;1009;51.436;6.972;2022-10-31T12:41:51;16.83;;;8.20;;
2011;SDS011;1009;51.436;6.972;2022-10-31T12:50:12;18.23;;;8.80;;
2011;SDS011;1009;51.436;6.972;2022-10-31T12:52:54;14.00;;;8.20;;
2011;SDS011;1009;51.436;6.972;2022-10-31T12:55:32;16.40;;;7.70;;
2011;SDS011;1009;51.436;6.972;2022-10-31T12:58:10;14.07;;;8.10;;
2011;SDS011;1009;51.436;6.972;2022-10-31T13:00:48;19.83;;;8.90;;
2011;SDS011;1009;51.436;6.972;2022-10-31T13:03:25;16.20;;;9.20;;
2011;SDS011;1009;51.436;6.972;2022-10-31T13:05:59;13.40;;;8.23;;
2011;SDS011;1009;51.436;6.972;2022-10-31T13:08:33;14.10;;;7.93;;
2011;SDS011;1009;51.436;6.972;2022-10-31T13:11:06;14.83;;;7.77;;
2011;SDS011;1009;51.436;6.972;2022-10-31T13:13:37;14.37;;;7.17;;
2011;SDS011;1009;51.436;6.972;2022-10-31T13:16:09;9.60;;;7.10;;
2011;SDS011;1009;51.436;6.972;2022-10-31T13:18:39;10.13;;;7.00;;
2011;SDS011;1009;51.436;6.972;2022-10-31T13:21:10;10.73;;;7.80;;
2011;SDS011;1009;51.436;6.972;2022-10-31T13:23:44;9.30;;;6.57;;
2011;SDS011;1009;51.436;6.972;2022-10-31T13:26:15;14.40;;;6.97;;
2011;SDS011;1009;51.436;6.972;2022-10-31T13:28:48;12.23;;;6.83;;
2011;SDS011;1009;51.436;6.972;2022-10-31T13:31:22;13.37;;;7.73;;
2011;SDS011;1009;51.436;6.972;2022-10-31T13:33:49;11.30;;;6.00;;
2011;SDS011;1009;51.436;6.972;2022-10-31T13:36:22;12.90;;;6.53;;
2011;SDS011;1009;51.436;6.972;2022-10-31T13:38:59;9.17;;;6.47;;
2011;SDS011;1009;51.436;6.972;2022-10-31T13:41:38;11.27;;;6.93;;
2011;SDS011;1009;51.436;6.972;2022-10-31T13:44:11;11.40;;;6.17;;
2011;SDS011;1009;51.436;6.972;2022-10-31T13:46:42;14.70;;;6.60;;
2011;SDS011;1009;51.436;6.972;2022-10-31T13:52:05;13.63;;;6.90;;
2011;SDS011;1009;51.436;6.972;2022-10-31T13:54:44;13.50;;;7.00;;
2011;SDS011;1009;51.436;6.972;2022-10-31T13:57:14;11.07;;;6.20;;
2011;SDS011;1009;51.436;6.972;2022-10-31T13:59:46;9.50;;;6.30;;
2011;SDS011;1009;51.436;6.972;2022-10-31T14:02:16;12.17;;;7.20;;
2011;SDS011;1009;51.436;6.972;2022-10-31T14:04:46;12.07;;;7.30;;
2011;SDS011;1009;51.436;6.972;2022-10-31T14:07:17;16.77;;;8.40;;
2011;SDS011;1009;51.436;6.972;2022-10-31T14:09:54;17.33;;;8.90;;
2011;SDS011;1009;51.436;6.972;2022-10-31T14:12:24;16.47;;;7.30;;
2011;SDS011;1009;51.436;6.972;2022-10-31T14:14:55;9.20;;;5.13;;
2011;SDS011;1009;51.436;6.972;2022-10-31T14:17:29;9.37;;;5.20;;
2011;SDS011;1009;51.436;6.972;2022-10-31T14:22:49;10.67;;;6.40;;
2011;SDS011;1009;51.436;6.972;2022-10-31T14:25:27;12.67;;;6.90;;
2011;SDS011;1009;51.436;6.972;2022-10-31T14:27:57;13.70;;;7.60;;
2011;SDS011;1009;51.436;6.972;2022-10-31T14:30:25;9.63;;;6.60;;
2011;SDS011;1009;51.436;6.972;2022-10-31T14:32:55;12.00;;;5.80;;
2011;SDS011;1009;51.436;6.972;2022-10-31T14:35:24;11.50;;;6.60;;
2011;SDS011;1009;51.436;6.972;2022-10-31T14:38:02;13.97;;;6.30;;
2011;SDS011;1009;51.436;6.972;2022-10-31T14:40:46;15.37;;;6.50;;
2011;SDS011;1009;51.436;6.972;2022-10-31T14:43:31;13.67;;;7.20;;
2011;SDS011;1009;51.436;6.972;2022-10-31T14:46:07;12.80;;;6.83;;
2011;SDS011;1009;51.436;6.972;2022-10-31T14:48:46;13.43;;;8.67;;
2011;SDS011;1009;51.436;6.972;2022-10-31T14:51:26;12.97;;;6.57;;
2011;SDS011;1009;51.436;6.972;2022-10-31T14:53:59;11.73;;;6.07;;
2011;SDS011;1009;51.436;6.972;2022-10-31T14:56:29;15.43;;;5.80;;
2011;SDS011;1009;51.436;6.972;2022-10-31T14:58:59;13.00;;;5.43;;
2011;SDS011;1009;51.436;6.972;2022-10-31T15:01:28;14.77;;;4.90;;
2011;SDS011;1009;51.436;6.972;2022-10-31T15:03:57;13.77;;;4.93;;
2011;SDS011;1009;51.436;6.972;2022-10-31T15:06:40;8.67;;;4.23;;
2011;SDS011;1009;51.436;6.972;2022-10-31T15:09:22;13.10;;;4.83;;
2011;SDS011;1009;51.436;6.972;2022-10-31T15:11:51;12.07;;;4.87;;
2011;SDS011;1009;51.436;6.972;2022-10-31T15:14:22;7.93;;;4.70;;
2011;SDS011;1009;51.436;6.972;2022-10-31T15:16:50;11.10;;;4.67;;
2011;SDS011;1009;51.436;6.972;2022-10-31T15:19:20;10.80;;;4.77;;
2011;SDS011;1009;51.436;6.972;2022-10-31T15:21:49;9.30;;;4.47;;
2011;SDS011;1009;51.436;6.972;2022-10-31T15:24:17;10.00;;;5.40;;
2011;SDS011;1009;51.436;6.972;2022-10-31T15:26:45;17.03;;;4.90;;
2011;SDS011;1009;51.436;6.972;2022-10-31T15:29:16;8.10;;;4.70;;
2011;SDS011;1009;51.436;6.972;2022-10-31T15:31:49;11.27;;;4.80;;
2011;SDS011;1009;51.436;6.972;2022-10-31T15:34:19;14.70;;;5.40;;
2011;SDS011;1009;51.436;6.972;2022-10-31T15:36:50;10.37;;;4.70;;